Date,TemperatureHighF,TemperatureAvgF,TemperatureLowF,DewpointHighF,DewpointAvgF,DewpointLowF,HumidityHigh,HumidityAvg,HumidityLow,PressureMaxIn,PressureMinIn,WindSpeedMaxMPH,WindSpeedAvgMPH,GustSpeedMaxMPH,PrecipitationSumIn
2013-1-1,13.3,5.2,-3.5,6.5,0.0,-6.9,90,79,62,30.28,30.14,4,0,18,0.00
2013-1-2,24.0,17.8,11.6,15.3,12.4,6.5,88,79,64,30.14,30.05,2,0,5,0.00
2013-1-3,23.9,19.2,11.0,19.2,15.0,6.6,85,83,80,30.18,30.03,8,1,19,0.00
2013-1-4,30.2,20.3,10.5,20.9,14.6,6.8,88,79,66,30.18,30.02,9,1,16,0.00
2013-1-5,30.6,19.9,4.7,26.8,16.3,1.9,99,86,74,30.19,29.87,2,0,10,0.00
2013-1-6,31.9,23.4,9.8,24.2,18.9,7.5,91,83,71,30.25,29.88,14,2,19,0.00
2013-1-7,37.3,24.0,6.8,28.4,18.8,4.2,100,81,64,30.22,29.94,8,1,15,0.03
2013-1-8,35.9,25.4,11.9,31.5,22.5,9.8,96,89,78,30.09,29.85,4,0,8,0.02
2013-1-9,39.4,33.1,19.5,32.4,25.9,16.5,88,75,57,30.42,29.85,12,2,26,0.05
2013-1-10,35.2,26.3,14.0,33.8,23.2,11.9,100,88,71,30.48,29.90,2,0,14,0.39
2013-1-11,40.3,35.7,33.1,40.0,35.1,32.3,99,98,97,29.89,29.52,2,0,6,0.31
2013-1-12,41.2,30.7,18.5,40.9,26.2,12.5,99,83,73,30.00,29.51,9,2,18,0.01
2013-1-13,18.5,13.9,7.7,12.3,8.0,1.6,83,77,70,30.22,29.93,12,1,22,0.00
2013-1-14,19.8,11.0,3.7,10.9,5.6,0.5,88,79,67,30.45,30.22,5,0,15,0.00
2013-1-15,29.3,15.4,1.6,17.2,9.7,-1.4,92,79,58,30.43,30.02,5,0,8,0.00
2013-1-16,31.7,24.9,16.4,27.8,19.4,11.9,88,80,61,30.10,29.70,18,2,18,0.00
2013-1-17,21.1,13.1,4.2,12.5,4.9,0.2,87,70,57,30.42,30.10,8,1,19,0.00
2013-1-18,41.1,24.1,3.8,33.0,19.7,0.8,91,83,69,30.42,29.76,4,0,11,0.05
2013-1-19,44.0,31.6,8.1,34.5,26.0,-1.5,95,80,58,29.93,29.56,22,3,41,0.01
2013-1-20,10.8,6.3,1.9,-0.3,-3.2,-5.3,72,65,56,30.31,29.93,18,3,29,0.00
2013-1-21,4.9,-3.0,-8.2,-2.8,-11.2,-16.2,78,67,57,30.33,30.16,18,3,26,0.00
2013-1-22,2.4,-4.5,-10.4,-8.6,-12.1,-16.2,78,69,57,30.41,30.32,5,1,19,0.00
2013-1-23,14.9,6.1,-3.5,9.7,-0.1,-8.9,82,75,64,30.50,30.12,19,2,31,0.00
2013-1-24,10.8,4.8,-3.4,7.1,-2.4,-8.3,87,72,60,30.71,30.38,8,1,11,0.00
2013-1-25,20.4,15.3,10.1,16.7,11.6,6.0,91,85,77,30.38,29.94,5,0,14,0.00
2013-1-26,22.4,13.4,1.4,15.0,7.9,-2.0,87,79,64,30.42,30.21,4,0,11,0.00
2013-1-27,31.9,26.4,20.9,30.9,22.7,14.6,96,86,75,30.34,29.86,2,0,5,0.01
2013-1-28,34.4,32.6,31.5,31.9,31.0,30.0,97,94,88,29.94,29.78,8,0,12,0.24
2013-1-29,42.8,35.1,31.7,42.5,34.3,30.4,99,97,95,29.78,29.50,5,1,9,0.60
2013-1-30,33.5,26.6,16.4,32.3,25.4,14.5,96,95,92,29.55,29.34,15,6,22,0.00
2013-4-14,35.1,33.1,27.6,33.5,31.0,25.9,95,92,84,30.01,29.62,17,3,17,0.21
2013-4-15,54.2,42.5,34.2,46.5,34.9,29.4,98,77,45,29.93,29.60,17,2,17,0.30
2013-4-16,47.4,38.6,29.9,33.2,30.1,27.0,89,72,54,30.32,29.93,18,2,18,0.00
2013-4-17,38.8,35.5,28.7,36.1,32.3,26.4,95,88,80,30.37,29.93,22,4,24,0.18
2013-4-18,41.4,37.8,35.3,40.9,37.0,34.5,98,97,95,29.93,29.26,17,4,17,0.41
2013-4-19,39.4,33.0,27.2,37.7,26.2,17.7,94,76,61,29.90,29.22,28,4,28,0.04
2013-4-20,41.7,31.2,23.0,21.2,17.8,12.4,83,60,34,30.39,29.90,17,2,17,0.00
2013-4-21,41.4,33.3,24.7,35.6,29.4,20.7,96,85,74,30.50,30.21,11,0,11,0.06
2013-4-22,49.9,44.6,39.8,45.8,40.7,34.1,95,86,77,30.23,29.96,17,1,17,0.05
2013-4-23,46.8,39.9,34.2,43.5,34.2,26.5,96,80,67,30.00,29.83,18,3,18,0.04
2013-4-24,52.1,40.1,28.5,34.0,26.4,20.8,87,61,36,30.02,29.91,17,2,17,0.00
2013-4-25,50.9,41.1,31.4,36.0,31.0,26.9,92,69,42,30.24,29.90,19,2,19,0.02
2013-4-26,72.5,52.0,30.1,47.3,38.7,26.8,93,65,33,30.24,30.04,15,1,15,0.03
2013-4-27,71.9,59.1,47.9,52.1,47.7,43.4,91,67,46,30.15,29.97,7,1,7,0.00
2013-4-28,73.3,57.1,39.1,46.2,42.1,37.5,97,63,31,29.97,29.72,15,0,15,0.00
2013-4-29,72.2,59.5,51.0,56.1,50.6,44.5,91,73,48,29.77,29.65,9,0,9,0.08
2013-4-30,87.3,71.0,55.2,59.2,53.4,37.1,89,58,29,29.83,29.57,19,2,19,0.00
2013-5-1,75.2,60.5,45.1,53.5,44.9,35.3,78,57,39,30.25,29.83,20,4,20,0.00
2013-5-2,45.4,41.3,34.8,36.0,33.5,30.8,86,74,65,30.33,30.24,20,7,20,0.03
2013-5-3,43.7,38.0,33.9,41.2,35.0,30.3,91,89,84,30.26,30.06,18,6,18,0.22
2013-5-4,71.9,54.5,41.8,51.4,44.9,38.8,90,73,40,30.08,30.01,17,3,17,0.00
2013-5-5,73.6,57.9,45.6,48.4,43.6,38.6,86,62,32,30.08,29.99,14,2,14,0.00
2013-5-6,77.2,58.9,43.7,46.1,41.9,36.5,88,59,25,30.07,29.96,12,1,12,0.00
2013-5-7,81.5,61.8,43.1,46.0,38.6,22.2,90,51,14,30.05,29.95,15,1,15,0.00
2013-5-8,81.8,63.7,44.6,50.0,43.3,36.3,89,53,22,29.99,29.90,14,0,14,0.00
2013-5-9,62.2,55.0,42.8,53.6,48.4,39.7,89,79,64,29.97,29.88,25,3,25,0.24
2013-5-10,59.5,46.4,38.7,46.1,40.3,35.1,90,80,58,30.01,29.89,21,6,22,0.06
2013-5-11,52.1,45.2,37.5,45.7,33.4,20.9,92,66,34,30.00,29.75,29,4,29,0.01
2013-5-12,51.9,42.6,35.8,31.4,23.2,18.3,78,48,28,30.12,30.00,21,5,21,0.00
2013-5-13,62.9,46.9,28.6,37.1,25.7,13.7,87,50,15,30.17,29.86,12,1,12,0.00
2013-5-14,81.4,62.6,42.6,58.4,46.1,34.4,82,57,33,29.86,29.44,10,0,10,0.00
2013-5-15,75.3,70.2,59.6,54.0,40.7,34.8,79,35,26,29.79,29.46,19,2,19,0.00
2013-5-16,80.6,65.2,51.0,50.9,44.3,36.6,84,49,27,29.99,29.77,16,1,16,0.00
2013-5-17,55.5,51.8,47.7,50.8,45.5,36.3,91,80,50,30.10,29.97,14,2,14,0.40
2013-5-18,76.1,62.7,50.4,63.5,55.2,47.0,89,77,62,30.08,29.88,10,1,10,0.01
2013-5-19,84.2,70.0,57.1,66.2,60.3,54.2,92,73,50,29.90,29.63,12,0,12,0.00
2013-5-20,83.2,71.4,61.1,63.3,59.9,56.6,92,70,43,29.73,29.55,11,0,11,0.24
2013-5-21,75.4,67.6,60.8,66.1,59.4,55.9,91,76,54,29.64,29.51,7,0,7,0.59
2013-5-22,64.0,57.5,52.9,56.8,54.1,49.1,92,89,74,29.81,29.60,20,3,20,0.34
2013-5-23,60.2,52.1,44.5,49.5,39.3,29.1,89,65,31,30.31,29.80,22,7,22,0.01
2013-5-24,62.0,52.7,35.5,41.7,35.4,31.1,87,53,32,30.44,30.28,9,1,12,0.00
2013-5-25,64.7,58.2,46.3,42.0,38.8,33.0,80,50,34,30.39,30.26,15,1,15,0.00
2013-5-26,67.0,54.5,40.1,44.4,39.5,36.3,87,60,36,30.31,30.15,14,1,14,0.00
2013-5-27,58.4,54.2,51.3,51.8,45.4,36.3,90,73,53,30.17,29.88,13,1,13,0.06
2013-5-28,52.0,51.8,51.7,49.4,49.3,48.9,91,91,90,29.89,29.70,11,1,11,0.07
2013-5-29,85.1,67.7,51.8,65.7,58.7,49.3,93,75,44,29.84,29.72,13,0,17,0.00
2013-5-30,83.8,48.2,0.0,70.4,40.5,0.0,80,40,57,29.82,29.61,6,0,7,0.01
2013-5-31,78.6,33.8,0.0,64.9,28.6,0.0,86,32,55,29.68,29.57,3,0,10,0.01
2013-6-1,77.7,66.5,56.7,66.7,57.6,52.3,91,75,43,29.64,29.52,15,0,15,0.06
2013-6-2,61.2,53.2,45.8,53.8,41.3,37.0,80,65,44,30.00,29.64,19,4,19,0.00
2013-6-3,70.8,58.2,42.2,50.2,43.5,38.9,91,62,33,30.06,29.95,15,1,15,0.00
2013-6-4,59.6,53.2,51.0,51.1,48.0,43.8,91,83,64,30.17,30.05,11,1,12,0.49
2013-6-5,58.3,52.3,49.9,53.8,49.5,47.4,92,90,83,30.14,29.96,14,2,14,0.22
2013-6-6,54.1,52.2,50.8,50.5,49.1,45.9,92,89,77,29.98,29.94,12,2,12,0.36
2013-6-7,69.8,58.3,50.3,54.3,49.3,44.1,87,73,41,29.99,29.90,10,1,11,0.00
2013-6-8,67.5,59.5,53.6,56.8,52.9,47.9,91,80,50,29.99,29.89,7,0,7,0.07
2013-6-9,73.3,61.7,52.7,61.8,55.1,48.6,90,80,61,30.00,29.81,18,2,18,0.05
2013-6-10,77.2,68.0,58.7,65.4,60.4,55.5,90,78,61,29.84,29.73,7,1,11,0.00
2013-6-11,79.1,69.5,59.9,64.4,61.3,57.0,92,76,55,29.85,29.75,9,0,9,0.00
2013-6-12,75.8,66.1,59.8,63.1,60.3,55.4,91,82,62,29.87,29.65,14,1,14,0.31
2013-6-13,74.4,66.4,58.6,56.8,54.5,52.1,88,67,47,30.05,29.74,17,3,17,0.00
2013-6-14,75.8,64.8,52.2,58.1,52.0,46.8,88,65,39,30.11,29.94,12,1,12,0.00
2013-6-15,78.5,66.5,58.3,67.1,60.3,50.8,92,81,65,29.99,29.73,15,0,15,0.60
2013-6-16,81.2,69.7,59.3,62.3,56.2,47.3,93,67,32,29.84,29.78,8,1,16,0.00
2013-6-17,81.8,67.2,55.6,63.2,57.6,51.9,90,73,37,29.97,29.80,17,2,17,0.00
2013-6-18,70.0,60.0,49.3,53.8,47.8,41.5,84,66,41,30.08,29.96,19,3,19,0.00
2013-6-19,76.5,61.7,44.8,57.4,48.9,41.5,91,66,36,30.12,30.00,9,0,9,0.00
2013-6-20,86.0,70.2,55.9,66.5,56.1,49.6,83,63,37,30.09,29.97,3,0,3,0.00
2013-6-21,76.5,69.1,64.2,67.3,62.7,55.8,92,80,68,30.02,29.69,12,0,12,0.96
2013-6-22,78.7,69.5,65.3,69.7,64.8,62.0,92,85,71,30.04,29.85,12,1,12,0.44
2013-6-23,85.0,73.6,64.4,73.4,67.1,62.0,93,81,57,29.92,29.75,7,0,7,0.17
2013-6-24,83.2,74.1,67.1,71.3,67.4,64.3,92,80,63,29.90,29.77,7,0,7,0.00
2013-6-25,79.8,71.9,65.5,70.1,66.2,62.5,92,83,66,29.83,29.73,7,0,7,0.03
2013-6-26,81.3,73.7,68.7,70.4,68.0,66.0,92,83,65,29.73,29.63,5,0,5,0.00
2013-6-27,85.8,73.8,63.4,70.9,65.7,58.3,91,77,47,29.72,29.60,14,1,18,0.15
2013-6-28,74.5,67.2,62.3,64.5,61.4,57.9,91,82,63,29.65,29.55,17,1,17,0.21
2013-6-29,71.2,64.6,61.6,61.6,59.4,52.0,91,84,64,29.84,29.61,16,3,16,0.00
2013-6-30,77.6,67.7,58.3,55.5,49.0,41.0,80,53,28,30.03,29.84,13,3,16,0.00
2013-7-1,79.7,67.0,53.4,56.8,53.0,49.2,88,63,38,30.12,30.02,14,2,14,0.00
2013-7-2,74.3,65.0,56.0,54.9,49.0,41.7,77,58,33,30.11,30.03,16,2,16,0.00
2013-7-3,70.2,63.3,56.5,60.4,54.7,48.6,86,74,65,30.07,29.97,9,0,10,0.00
2013-7-4,82.5,70.1,60.6,64.3,59.8,56.8,91,72,45,30.02,29.92,3,0,3,0.00
2013-7-5,85.0,73.0,60.3,64.1,60.4,56.5,93,67,41,29.98,29.88,4,0,4,0.00
2013-7-6,86.7,75.0,63.5,66.9,63.2,59.4,88,69,45,29.95,29.85,3,0,5,0.00
2013-7-7,86.8,75.8,66.4,72.3,67.5,62.7,89,76,56,29.89,29.80,2,0,4,0.00
2013-7-8,83.1,75.3,69.5,73.4,69.1,66.4,92,82,64,29.92,29.77,11,1,11,0.79
2013-7-9,80.3,73.5,66.5,73.6,68.5,63.8,92,85,69,29.93,29.69,11,0,11,0.07
2013-7-10,75.9,70.3,60.5,67.8,57.6,53.1,86,65,48,29.97,29.73,19,2,19,0.00
2013-7-11,80.3,67.3,56.7,62.0,56.2,53.2,90,70,41,30.07,29.97,9,0,9,0.00
2013-7-12,82.3,69.5,57.2,62.3,56.9,53.2,89,67,41,30.11,30.00,6,0,6,0.00
2013-7-13,84.0,71.2,60.7,65.1,59.6,56.1,86,68,44,30.10,30.02,7,0,7,0.00
2013-7-14,86.1,72.5,58.1,69.3,62.8,54.2,91,73,51,30.17,30.10,5,0,5,0.00
2013-7-15,89.2,77.0,65.8,73.3,68.4,62.5,91,76,55,30.22,30.14,7,0,7,0.00
2013-7-16,91.0,80.3,71.4,76.7,72.2,68.2,92,77,58,30.20,30.12,6,0,6,0.00
2013-7-17,93.1,83.3,75.9,73.9,71.3,67.4,85,68,49,30.19,30.05,16,0,16,0.00
2013-7-18,94.0,83.7,74.2,72.7,69.9,68.0,83,65,44,30.07,29.75,13,0,13,0.00
2013-7-19,93.0,82.1,71.2,72.0,65.8,60.0,72,59,35,29.76,29.63,20,1,20,0.00
2013-7-20,77.2,70.3,63.6,63.2,60.1,55.6,82,70,54,29.94,29.75,12,1,12,0.00
2013-7-21,69.6,64.4,58.3,62.0,57.0,51.6,89,77,58,29.96,29.86,12,1,12,0.03
2013-7-22,86.0,72.3,59.1,69.8,64.0,55.9,92,77,53,29.86,29.58,9,0,9,0.01
2013-7-23,74.9,66.3,59.1,65.8,52.9,47.6,76,63,47,29.96,29.64,12,3,18,0.00
2013-7-24,74.4,62.7,52.1,53.8,49.9,46.0,86,65,40,30.05,29.96,9,0,9,0.00
2013-7-25,80.3,67.6,54.7,64.6,58.0,50.0,90,73,50,30.00,29.86,5,0,5,0.09
2013-7-26,74.5,65.3,53.7,68.6,58.7,48.8,92,81,48,29.90,29.76,15,1,15,0.64
2013-7-27,60.9,53.6,47.7,49.4,46.2,42.6,87,76,62,29.91,29.81,14,1,14,0.02
2013-7-28,67.6,57.1,51.1,54.4,50.2,45.8,90,78,59,29.97,29.80,11,1,16,0.00
2013-7-29,73.8,62.3,54.6,58.8,53.4,48.5,86,73,54,30.12,29.97,10,0,10,0.00
2013-7-30,78.0,65.0,53.7,62.2,57.4,50.6,92,78,51,30.15,30.02,6,0,6,0.00
2013-7-31,80.2,67.7,62.5,66.9,61.3,58.7,90,81,52,30.03,29.88,12,0,17,0.05
2013-8-1,77.8,66.6,56.8,59.8,54.4,49.9,89,68,39,29.94,29.82,16,1,18,0.00
2013-8-2,77.9,67.3,57.0,60.5,54.6,49.3,89,66,40,29.93,29.77,10,1,13,0.00
2013-8-3,75.7,64.2,53.2,53.8,51.0,46.8,89,65,39,30.12,29.93,14,1,14,0.00
2013-8-4,72.7,62.6,51.5,54.0,51.1,47.8,90,68,45,30.20,30.06,9,0,10,0.00
2013-8-5,73.0,63.8,54.9,61.7,57.2,51.6,91,80,64,30.06,29.80,2,0,2,0.00
2013-8-6,82.2,71.9,64.4,65.9,62.1,56.4,90,73,42,29.81,29.65,10,0,10,0.00
2013-8-7,76.2,67.1,57.9,66.7,58.2,51.8,92,75,54,29.97,29.67,29,1,29,0.34
2013-8-8,76.8,63.6,50.2,58.9,52.9,46.8,92,70,41,30.01,29.94,10,0,10,0.00
2013-8-9,61.7,60.7,60.1,56.3,55.2,53.2,85,82,76,29.94,29.92,0,0,0,0.00
2013-8-10,71.3,64.9,56.8,56.2,53.6,51.4,84,68,50,30.12,30.05,4,0,7,0.00
2013-8-11,65.3,61.2,54.1,62.0,57.9,50.6,91,89,85,30.08,29.99,3,0,3,0.10
2013-8-12,79.5,66.0,56.5,64.7,57.1,52.2,94,75,47,30.00,29.86,16,1,16,0.01
2013-8-13,70.0,59.1,48.2,53.1,47.2,43.2,88,67,40,30.16,29.99,18,2,18,0.00
2013-8-14,72.8,58.3,44.3,52.1,46.7,41.0,91,68,38,30.20,30.07,6,0,12,0.00
2013-8-15,79.2,63.0,50.2,56.0,51.6,46.5,89,69,37,30.10,30.02,12,0,12,0.00
2013-8-16,82.7,67.7,55.9,58.8,53.0,46.9,83,63,33,30.14,30.07,11,0,11,0.00
2013-8-17,84.2,67.7,54.5,59.3,54.7,50.6,90,66,36,30.20,30.09,9,0,9,0.00
2013-8-18,85.3,68.8,54.6,60.5,55.2,50.7,91,65,35,30.16,30.01,7,0,7,0.00
2013-8-19,83.6,70.3,55.5,62.2,57.4,51.6,89,66,40,30.03,29.92,11,0,11,0.00
2013-8-20,89.5,75.0,62.1,65.9,62.4,58.5,89,67,44,29.99,29.89,4,0,4,0.00
2013-8-21,93.5,78.7,68.0,71.1,66.9,63.2,88,68,46,29.95,29.78,20,0,20,0.21
2013-8-22,80.9,70.1,61.8,64.8,60.0,55.8,92,72,45,30.08,29.93,12,1,12,0.00
2013-8-23,81.8,67.9,55.1,62.8,57.1,51.7,91,71,44,30.16,30.07,11,0,11,0.00
2013-8-24,85.8,70.9,56.4,67.2,58.9,51.3,91,69,35,30.20,30.06,10,0,10,0.00
2013-8-25,94.0,80.8,70.2,70.8,67.7,64.5,84,66,44,30.08,29.94,11,0,11,0.00
2013-8-26,93.0,79.6,68.8,75.3,69.0,63.5,92,71,47,30.10,29.83,13,0,13,0.62
2013-8-27,95.0,81.1,73.6,77.3,72.7,70.8,92,78,48,29.88,29.69,23,1,26,0.03
2013-8-28,84.0,75.8,71.2,70.9,68.6,66.7,91,79,59,29.99,29.80,11,1,11,0.01
2013-8-29,87.9,76.8,66.9,69.8,67.3,63.9,92,74,50,30.03,29.88,4,0,4,0.00
2013-8-30,83.4,76.4,66.3,74.9,66.6,58.8,88,72,56,29.90,29.74,16,2,16,0.00
2013-8-31,77.4,67.5,59.3,67.8,62.0,54.8,96,83,68,29.84,29.73,6,0,10,0.00
2013-9-1,82.5,70.8,62.9,72.7,64.4,60.3,97,82,57,29.79,29.66,15,1,18,0.00
2013-9-2,67.6,61.0,53.9,61.7,54.9,50.3,93,81,69,29.99,29.79,16,1,16,0.00
2013-9-3,76.6,61.6,45.6,55.5,51.2,44.2,97,72,44,30.06,29.94,10,0,10,0.00
2013-9-4,81.0,67.5,57.0,68.3,60.2,52.0,92,78,59,30.11,29.96,9,1,13,0.00
2013-9-5,73.7,63.4,53.5,60.2,54.0,49.4,94,73,51,30.26,30.11,12,1,12,0.00
2013-9-6,87.1,69.0,49.6,67.4,59.1,47.7,94,73,51,30.19,29.88,7,0,8,0.00
2013-9-7,85.8,74.6,67.0,73.1,67.5,62.9,95,79,59,29.99,29.80,23,1,23,0.05
2013-9-8,73.0,66.1,57.1,62.9,59.7,54.5,92,81,63,30.07,29.91,19,2,19,0.00
2013-9-9,89.0,75.1,63.4,76.8,68.3,60.0,92,80,60,29.93,29.64,10,0,10,0.00
2013-9-10,93.8,82.4,70.3,72.3,68.6,65.8,95,64,47,29.87,29.67,11,0,14,0.07
2013-9-11,85.6,72.9,64.3,68.8,64.5,59.0,97,78,44,29.95,29.87,12,0,12,0.00
2013-9-12,71.5,63.2,56.7,59.2,54.3,45.7,94,74,50,30.11,29.90,19,3,19,0.00
2013-9-13,63.2,53.8,43.0,46.0,43.5,39.7,95,70,47,30.22,30.11,12,1,13,0.00
2013-9-14,72.2,57.3,42.4,50.2,45.7,40.4,96,69,41,30.13,29.94,9,0,9,0.00
2013-9-15,62.8,56.5,50.2,57.5,53.5,44.6,98,90,71,30.27,29.92,18,2,18,0.64
2013-9-16,60.7,49.9,39.3,47.4,43.0,37.7,96,78,53,30.42,30.27,9,1,15,0.00
2013-9-17,68.2,53.3,36.6,55.7,48.2,35.2,98,84,59,30.35,30.06,9,0,9,0.01
2013-9-18,76.8,64.3,56.2,69.2,61.3,54.6,98,91,72,30.06,29.80,3,0,3,0.16
2013-9-19,82.2,71.8,64.2,73.3,68.4,62.7,99,90,71,29.81,29.62,5,0,5,0.10
2013-9-20,67.2,64.4,56.5,66.6,61.3,51.9,98,90,72,29.77,29.63,14,0,14,0.09
2013-9-21,57.2,51.9,47.1,52.1,47.4,44.7,94,85,68,29.92,29.77,13,1,13,0.00
2013-9-22,59.2,50.0,35.8,46.2,42.2,34.2,97,76,56,30.09,29.96,10,0,10,0.00
2013-9-23,64.8,49.0,37.9,53.0,44.9,36.6,98,87,65,30.12,30.03,10,0,10,0.00
2013-9-24,69.5,51.7,41.8,55.8,47.0,40.5,97,85,59,30.06,29.95,4,0,8,0.00
2013-9-25,67.1,53.3,42.3,56.3,48.9,41.0,98,86,63,30.01,29.94,12,0,12,0.00
2013-9-26,74.1,57.1,43.5,61.5,52.0,41.9,99,85,56,30.07,29.98,6,0,6,0.00
2013-9-27,79.4,61.3,45.4,60.2,52.2,44.0,98,76,40,30.11,29.98,8,0,8,0.00
2013-9-28,79.0,59.6,49.4,65.6,53.9,47.7,97,83,56,30.00,29.73,8,0,13,0.25
2013-9-29,69.9,56.3,44.1,55.2,48.8,42.9,98,79,47,30.01,29.90,5,0,5,0.00
2013-9-30,71.3,57.1,44.4,51.7,47.4,42.5,96,73,46,29.95,29.74,1,0,5,0.00
2013-10-1,78.2,64.9,51.0,62.0,55.1,43.8,93,72,49,29.92,29.72,14,0,14,0.00
2013-10-2,74.4,58.6,43.6,50.2,44.4,38.2,92,63,32,30.07,29.92,5,0,5,0.00
2013-10-3,68.0,58.2,51.8,62.3,54.2,44.8,96,87,65,29.94,29.82,20,1,20,0.19
2013-10-4,57.7,56.2,54.6,56.4,55.2,53.8,98,97,93,30.02,29.86,16,3,16,0.12
2013-10-5,63.7,60.0,56.7,63.4,59.6,56.1,99,99,98,29.98,29.66,20,2,20,0.65
2013-10-6,59.3,52.7,45.4,59.0,46.5,41.8,99,81,57,29.70,29.62,11,0,11,0.01
2013-10-7,62.9,52.0,43.3,49.8,44.9,41.4,96,79,51,30.04,29.66,22,1,22,0.03
2013-10-8,73.7,55.0,38.1,53.2,46.2,36.8,98,75,43,30.11,30.01,6,0,6,0.00
2013-10-9,72.5,57.8,44.9,54.8,49.4,43.2,97,76,50,30.16,30.05,5,0,5,0.00
2013-10-10,71.5,54.3,40.2,54.8,47.5,38.9,98,80,47,30.14,30.02,6,0,6,0.00
2013-10-11,73.8,57.7,46.8,61.6,52.5,45.2,98,84,58,30.03,29.86,9,0,9,0.00
2013-10-12,68.5,60.8,50.3,61.7,51.3,39.9,90,72,50,30.09,29.81,17,0,17,0.00
2013-10-13,57.2,48.7,39.1,43.9,40.3,36.9,92,74,51,30.39,30.09,13,1,13,0.00
2013-10-14,58.9,45.8,32.2,45.8,39.7,30.7,97,81,52,30.43,30.13,11,0,11,0.00
2013-10-15,55.6,50.8,45.3,55.0,49.4,42.5,98,95,89,30.14,29.67,10,0,10,0.56
2013-10-16,52.4,48.8,46.1,48.3,45.3,41.1,97,88,78,29.89,29.70,10,1,10,0.01
2013-10-17,54.5,45.7,39.2,43.1,40.2,37.5,95,82,56,29.88,29.74,9,0,9,0.00
2013-10-18,48.5,43.3,37.9,44.9,40.7,35.7,94,90,84,29.90,29.74,11,0,11,0.00
2013-10-19,51.3,39.8,30.8,40.0,35.4,29.5,97,86,52,29.86,29.66,11,0,11,0.12
2013-10-20,44.7,38.5,31.9,44.2,37.6,30.6,98,97,95,29.83,29.65,11,0,11,0.06
2013-10-21,38.3,36.1,33.3,35.3,28.3,23.6,89,73,61,29.88,29.80,15,1,15,0.00
2013-10-22,44.9,36.5,29.7,32.8,28.0,25.1,89,72,52,29.97,29.84,12,1,12,0.00
2013-10-23,41.6,34.0,28.3,31.0,27.2,23.7,88,77,50,30.00,29.93,11,0,12,0.00
2013-10-24,41.9,35.9,31.4,30.7,28.1,25.3,86,73,59,30.26,29.99,14,1,14,0.00
2013-10-25,50.0,39.4,28.5,34.9,30.2,26.6,94,72,52,30.31,29.73,14,0,14,0.00
2013-10-26,50.6,45.5,39.6,37.9,34.1,28.8,79,65,51,30.02,29.66,20,2,20,0.00
2013-10-27,53.7,41.4,30.2,34.0,31.4,26.8,90,69,43,30.07,29.82,17,1,17,0.00
2013-10-28,41.1,36.3,26.7,32.8,27.4,23.1,87,70,56,30.45,30.07,25,5,25,0.00
2013-10-29,43.5,35.3,25.6,39.7,31.5,22.6,91,86,82,30.45,30.15,11,1,11,0.00
2013-10-30,51.2,46.2,39.5,50.7,44.7,37.2,98,94,91,30.15,29.72,5,0,5,0.01
2013-10-31,55.4,51.1,42.9,55.1,50.7,42.4,99,98,97,29.73,29.19,17,0,17,0.33
2013-11-1,45.2,42.9,41.3,43.3,41.2,40.0,98,94,89,29.72,29.21,13,1,13,0.01
2013-11-2,43.7,40.4,35.3,40.1,38.1,33.8,96,91,78,30.14,29.71,8,0,8,0.11
2013-11-3,48.1,37.7,29.4,40.2,34.2,28.4,98,88,66,30.29,30.13,6,0,6,0.00
2013-11-4,51.7,46.0,40.0,45.0,41.1,37.4,92,83,67,30.20,29.99,4,0,10,0.01
2013-11-5,52.2,44.9,34.2,46.5,41.8,32.4,97,89,66,30.25,29.82,12,1,12,0.76
2013-11-6,44.0,37.7,30.1,43.2,34.1,25.5,98,87,68,30.12,29.72,19,3,19,0.27
2013-11-7,38.8,31.3,25.7,28.6,25.9,23.7,94,81,59,30.22,30.12,11,1,15,0.00
2013-11-8,40.5,33.1,23.6,36.7,29.6,21.9,96,87,72,30.26,29.78,5,0,5,0.04
2013-11-9,46.4,41.8,38.4,41.7,36.2,28.0,96,81,63,30.01,29.66,17,2,20,0.09
2013-11-10,45.1,40.6,38.1,32.4,30.3,28.2,76,67,56,30.27,30.01,18,2,18,0.00
2013-11-11,40.3,31.5,25.1,33.9,21.7,11.0,92,67,48,30.51,30.02,20,4,20,0.02
2013-11-12,27.7,22.4,16.8,16.4,12.9,11.0,81,67,51,30.70,30.52,14,1,14,0.00
2013-11-13,44.7,31.6,17.5,28.1,19.4,12.4,82,62,47,30.52,29.95,14,1,14,0.00
2013-11-14,48.4,39.2,31.2,34.0,26.4,19.1,81,60,49,29.95,29.80,7,0,7,0.00
2013-11-15,52.9,39.1,26.2,39.6,32.9,23.9,94,79,54,29.89,29.82,5,0,5,0.00
2013-11-16,55.3,44.8,35.5,54.8,43.3,32.4,98,94,83,29.84,29.36,6,0,6,0.83
2013-11-17,55.6,50.2,38.3,55.0,48.9,31.4,98,95,76,29.56,29.16,25,1,25,0.37
2013-11-18,38.3,30.0,25.1,31.4,23.0,20.4,82,75,65,30.24,29.56,22,2,25,0.00
2013-11-19,35.0,27.3,18.9,27.3,22.7,16.9,94,83,67,30.38,30.22,11,0,11,0.00
2013-11-20,39.9,34.8,28.9,33.6,30.1,26.6,95,83,66,30.23,30.09,9,0,9,0.03
2013-11-21,39.4,36.9,33.5,37.7,35.2,30.3,97,94,88,30.29,30.09,13,1,13,0.01
2013-11-22,33.4,28.9,23.9,30.2,21.4,13.5,93,74,49,30.47,30.29,22,2,22,0.00
2013-11-23,23.8,15.0,8.7,15.7,5.4,1.8,76,65,51,30.73,30.40,22,4,22,0.00
2013-11-24,9.0,6.9,5.7,3.0,2.1,1.3,83,80,76,30.71,30.66,5,0,5,0.00
2013-11-25,33.0,29.5,23.3,27.0,22.4,8.9,83,75,50,30.16,29.93,5,1,12,0.00
2013-11-26,34.1,23.7,11.7,26.3,13.5,4.1,78,65,51,30.24,29.96,22,3,22,0.00
2013-11-27,26.2,18.9,10.6,18.1,10.9,5.2,88,72,51,30.28,30.21,15,2,15,0.00
2013-11-28,24.6,19.9,10.9,18.9,15.8,7.6,91,84,72,30.52,30.16,11,0,11,0.00
2013-11-29,28.7,18.5,6.2,20.3,14.2,3.7,93,83,69,30.64,30.32,3,0,3,0.00
2013-11-30,41.8,32.4,23.6,30.5,26.2,19.2,87,78,63,30.32,30.00,6,0,6,0.02
2013-12-1,36.9,30.0,23.7,29.4,25.7,21.4,92,84,69,30.15,29.99,7,0,7,0.00
2013-12-2,37.1,28.6,18.1,31.0,25.3,16.2,95,88,77,29.99,29.77,9,0,9,0.00
2013-12-3,32.5,31.8,28.8,31.7,30.9,27.8,97,96,94,29.81,29.74,18,3,18,0.08
2013-12-4,39.7,32.3,28.7,39.2,31.7,27.7,99,97,91,29.81,29.39,13,3,13,0.21
2013-12-5,32.7,17.8,7.3,30.3,11.3,2.1,91,75,65,30.27,29.54,20,2,20,0.00
2013-12-6,9.8,5.2,1.1,2.1,-0.8,-3.6,83,76,68,30.59,30.27,11,1,14,0.00
2013-12-7,8.3,1.1,-4.3,-1.1,-4.9,-8.4,84,76,62,30.73,30.59,12,0,12,0.00
2013-12-8,12.1,7.1,-1.4,9.6,3.6,-5.1,90,85,77,30.66,30.01,10,3,12,0.00
2013-12-9,14.8,7.7,-3.2,10.0,2.7,-8.1,90,80,65,30.16,29.94,15,1,15,0.00
2013-12-10,11.7,4.6,-6.7,6.5,-1.0,-10.7,87,77,65,30.26,29.89,16,1,16,0.00
2013-12-11,9.3,0.6,-7.4,4.9,-6.5,-13.5,84,72,58,30.53,30.25,16,2,16,0.00
2013-12-12,17.9,7.8,-5.5,12.5,2.4,-10.6,84,78,71,30.49,30.19,6,0,14,0.00
2013-12-13,17.9,14.7,12.3,12.8,8.4,4.4,84,75,68,30.33,30.18,16,4,16,0.00
2013-12-14,19.2,15.3,11.4,15.7,12.3,8.3,91,88,83,30.31,29.94,13,4,15,0.00
2013-12-15,14.7,3.7,-4.9,10.5,-2.9,-10.7,83,74,62,30.16,29.92,17,2,17,0.00
2013-12-16,12.6,4.3,-7.4,10.2,0.1,-11.4,90,83,70,30.19,30.00,12,0,12,0.00
2013-12-17,31.1,22.2,12.6,26.1,17.7,8.1,93,83,67,30.05,29.85,17,1,17,0.00
2013-12-18,24.3,14.1,2.8,16.9,8.8,-0.8,90,79,70,30.09,29.72,11,0,11,0.00
2013-12-19,26.2,19.0,9.2,21.5,15.3,6.6,94,85,78,30.07,29.78,22,4,22,0.00
2013-12-20,22.4,20.0,17.8,19.7,17.5,14.6,93,90,85,30.00,29.84,22,6,22,0.00
2013-12-21,25.7,23.3,20.7,24.7,21.3,19.0,96,92,84,29.96,29.82,16,4,16,0.00
2013-12-22,24.2,21.5,18.2,21.2,19.3,16.2,94,91,87,30.13,29.80,19,4,19,0.00
2013-12-23,20.4,13.8,1.1,18.5,11.2,-2.2,94,89,85,30.44,30.12,9,0,9,0.00
2013-12-24,14.8,3.1,-10.4,9.0,-0.5,-13.9,92,85,76,30.55,30.30,2,0,2,0.00
2013-12-25,19.6,14.5,8.3,17.7,11.6,5.4,92,88,84,30.30,30.06,10,0,10,0.00
2013-12-26,20.7,16.3,12.7,15.7,12.5,9.5,89,85,79,30.24,30.08,4,0,4,0.00
2013-12-27,34.0,22.2,4.8,29.7,19.1,1.8,94,88,83,30.26,29.93,8,0,8,0.00
2013-12-28,42.2,30.3,20.5,34.8,27.2,18.8,97,89,72,30.02,29.71,3,0,3,0.14
2013-12-29,31.5,15.7,-6.3,29.9,10.0,-11.1,95,78,61,30.25,29.70,22,4,22,0.00
2013-12-30,-0.4,-5.9,-14.9,-5.0,-12.7,-19.2,82,72,54,30.37,30.24,6,0,6,0.00
2013-12-31,6.1,-0.2,-12.3,-1.5,-6.5,-17.4,82,74,62,30.46,30.22,9,1,11,0.00
2014-1-1,7.5,1.1,-14.3,-1.5,-6.6,-18.9,84,70,60,30.51,30.41,14,3,14,0.00
2014-1-2,8.7,2.1,-12.3,-1.6,-5.6,-16.7,82,70,54,30.47,30.36,14,3,14,0.00